createdAt,value
2019-01-30T00:01:27.541Z,12.58
2019-01-30T00:03:54.991Z,10.55
2019-01-30T00:06:22.262Z,11.18
2019-01-30T00:08:49.602Z,11.50
2019-01-30T00:11:19.093Z,15.03
2019-01-30T00:13:46.251Z,8.45
2019-01-30T00:16:14.750Z,7.25
2019-01-30T00:18:42.724Z,11.03
2019-01-30T00:21:10.790Z,10.45
2019-01-30T00:23:38.814Z,9.43
2019-01-30T00:26:07.295Z,9.00
2019-01-30T00:28:35.402Z,9.18
2019-01-30T00:31:03.750Z,11.68
2019-01-30T00:33:30.758Z,10.10
2019-01-30T00:35:58.828Z,11.40
2019-01-30T00:38:27.083Z,12.68
2019-01-30T00:40:55.125Z,13.05
2019-01-30T00:43:23.058Z,9.65
2019-01-30T00:45:51.121Z,8.13
2019-01-30T00:48:19.223Z,15.98
2019-01-30T00:50:48.399Z,9.93
2019-01-30T00:53:16.402Z,11.30
2019-01-30T00:55:45.411Z,12.05
2019-01-30T00:58:13.733Z,13.05
2019-01-30T01:00:41.886Z,9.45
2019-01-30T01:03:10.288Z,9.63
2019-01-30T01:05:38.398Z,9.40
2019-01-30T01:08:06.890Z,11.90
2019-01-30T01:10:35.098Z,10.23
2019-01-30T01:13:03.419Z,11.15
2019-01-30T01:15:32.510Z,11.15
2019-01-30T01:18:01.864Z,12.70
2019-01-30T01:20:29.300Z,16.77
2019-01-30T01:22:57.893Z,10.10
2019-01-30T01:25:25.971Z,14.25
2019-01-30T01:27:54.570Z,13.65
2019-01-30T01:30:25.507Z,10.88
2019-01-30T01:32:54.405Z,12.78
2019-01-30T01:35:22.634Z,10.65
2019-01-30T01:37:51.364Z,10.50
2019-01-30T01:40:20.332Z,9.95
2019-01-30T01:42:47.728Z,11.45
2019-01-30T01:45:17.618Z,12.23
2019-01-30T01:47:47.012Z,11.25
2019-01-30T01:50:16.219Z,11.00
2019-01-30T01:52:47.153Z,14.70
2019-01-30T01:55:16.105Z,10.58
2019-01-30T01:57:46.328Z,13.00
2019-01-30T02:00:16.934Z,9.45
2019-01-30T02:02:45.207Z,10.80
2019-01-30T02:05:15.630Z,9.88
2019-01-30T02:07:43.974Z,10.70
2019-01-30T02:10:14.668Z,8.83
2019-01-30T02:12:43.394Z,13.00
2019-01-30T02:15:13.683Z,7.85
2019-01-30T02:17:42.203Z,9.78
2019-01-30T02:20:17.853Z,10.55
2019-01-30T02:22:45.664Z,10.53
2019-01-30T02:25:13.188Z,10.38
2019-01-30T02:27:41.678Z,11.03
2019-01-30T02:30:15.479Z,12.28
2019-01-30T02:32:44.143Z,13.70
2019-01-30T02:35:12.514Z,13.30
2019-01-30T02:37:41.109Z,13.93
2019-01-30T02:40:11.146Z,10.60
2019-01-30T02:42:39.685Z,9.98
2019-01-30T02:45:09.311Z,8.93
2019-01-30T02:47:38.988Z,12.45
2019-01-30T02:50:10.430Z,14.55
2019-01-30T02:52:38.442Z,10.05
2019-01-30T02:55:09.630Z,13.20
2019-01-30T02:57:38.475Z,12.43
2019-01-30T03:00:10.479Z,12.43
2019-01-30T03:02:38.666Z,14.25
2019-01-30T03:05:12.630Z,13.38
2019-01-30T03:07:41.928Z,12.82
2019-01-30T03:10:12.447Z,14.85
2019-01-30T03:12:40.850Z,13.75
2019-01-30T03:15:10.852Z,12.37
2019-01-30T03:17:39.677Z,14.93
2019-01-30T03:20:09.826Z,12.65
2019-01-30T03:22:38.449Z,14.55
2019-01-30T03:25:08.259Z,15.45
2019-01-30T03:27:37.149Z,14.15
2019-01-30T03:30:07.269Z,15.75
2019-01-30T03:32:35.529Z,15.28
2019-01-30T03:35:04.644Z,18.30
2019-01-30T03:37:33.243Z,14.20
2019-01-30T03:40:01.703Z,14.73
2019-01-30T03:42:30.796Z,12.75
2019-01-30T03:44:58.184Z,13.50
2019-01-30T03:47:27.151Z,12.05
2019-01-30T03:49:54.262Z,12.28
2019-01-30T03:52:22.673Z,12.05
2019-01-30T03:54:51.165Z,15.32
2019-01-30T03:57:19.268Z,13.60
2019-01-30T03:59:50.691Z,14.68
2019-01-30T04:02:18.135Z,18.10
2019-01-30T04:04:45.402Z,14.33
2019-01-30T04:07:14.000Z,13.22
2019-01-30T04:09:43.582Z,15.58
2019-01-30T04:12:12.341Z,16.20
2019-01-30T04:14:40.856Z,16.65
2019-01-30T04:17:08.336Z,16.90
2019-01-30T04:19:37.425Z,15.45
2019-01-30T04:22:05.659Z,14.85
2019-01-30T04:24:32.633Z,13.78
2019-01-30T04:27:00.901Z,15.08
2019-01-30T04:29:28.934Z,12.60
2019-01-30T04:31:57.065Z,16.42
2019-01-30T04:34:25.046Z,13.55
2019-01-30T04:36:54.783Z,12.50
2019-01-30T04:39:22.814Z,13.93
2019-01-30T04:41:50.822Z,11.48
2019-01-30T04:44:18.794Z,18.57
2019-01-30T04:46:46.760Z,14.75
2019-01-30T04:49:17.056Z,15.55
2019-01-30T04:51:45.046Z,14.38
2019-01-30T04:54:13.267Z,14.05
2019-01-30T04:56:41.735Z,17.55
2019-01-30T04:59:09.961Z,13.08
2019-01-30T05:01:49.241Z,14.87
2019-01-30T05:04:08.112Z,13.65
2019-01-30T05:06:36.501Z,18.02
2019-01-30T05:09:07.612Z,18.52
2019-01-30T05:11:36.019Z,13.95
2019-01-30T05:14:04.818Z,14.85
2019-01-30T05:16:33.096Z,13.90
2019-01-30T05:19:01.018Z,13.48
2019-01-30T05:21:29.560Z,13.25
2019-01-30T05:23:57.918Z,15.88
2019-01-30T05:26:26.297Z,14.95
2019-01-30T05:28:54.210Z,15.48
2019-01-30T05:31:22.762Z,14.90
2019-01-30T05:33:51.029Z,17.10
2019-01-30T05:36:19.820Z,18.02
2019-01-30T05:38:48.289Z,14.30
2019-01-30T05:41:34.437Z,13.80
2019-01-30T05:44:03.134Z,19.27
2019-01-30T05:46:30.470Z,16.55
2019-01-30T05:48:57.682Z,15.10
2019-01-30T05:51:25.131Z,12.18
2019-01-30T05:53:53.119Z,16.75
2019-01-30T05:56:20.679Z,16.77
2019-01-30T05:58:48.770Z,16.40
2019-01-30T06:01:17.026Z,14.38
2019-01-30T06:03:45.398Z,14.80
2019-01-30T06:06:13.688Z,16.70
2019-01-30T06:08:42.663Z,16.60
2019-01-30T06:11:12.136Z,14.45
2019-01-30T06:13:39.710Z,15.93
2019-01-30T06:16:07.845Z,16.45
2019-01-30T06:18:35.991Z,15.83
2019-01-30T06:21:04.662Z,17.12
2019-01-30T06:23:33.052Z,17.52
2019-01-30T06:26:01.631Z,14.55
2019-01-30T06:28:29.899Z,16.07
2019-01-30T06:30:57.934Z,20.40
2019-01-30T06:33:25.954Z,15.70
2019-01-30T06:35:53.864Z,16.90
2019-01-30T06:38:22.270Z,15.28
2019-01-30T06:40:50.490Z,15.15
2019-01-30T06:43:18.447Z,13.65
2019-01-30T06:45:46.594Z,17.42
2019-01-30T06:48:14.885Z,14.55
2019-01-30T06:50:42.809Z,16.32
2019-01-30T06:53:10.802Z,15.72
2019-01-30T06:55:38.806Z,16.87
2019-01-30T06:58:08.795Z,16.97
2019-01-30T07:00:35.917Z,13.88
2019-01-30T07:03:03.241Z,14.80
2019-01-30T07:05:31.402Z,19.27
2019-01-30T07:07:59.249Z,19.12
2019-01-30T07:10:27.936Z,18.85
2019-01-30T07:13:01.057Z,16.82
2019-01-30T07:15:29.810Z,18.57
2019-01-30T07:17:57.357Z,14.43
2019-01-30T07:20:25.837Z,17.02
2019-01-30T07:22:53.077Z,14.47
2019-01-30T07:25:21.926Z,14.33
2019-01-30T07:27:51.636Z,17.45
2019-01-30T07:30:25.589Z,17.10
2019-01-30T07:32:54.364Z,18.07
2019-01-30T07:35:23.164Z,17.90
2019-01-30T07:37:51.882Z,18.27
2019-01-30T07:40:21.003Z,14.93
2019-01-30T07:42:49.534Z,12.88
2019-01-30T07:45:18.767Z,17.27
2019-01-30T07:47:47.410Z,16.97
2019-01-30T07:50:15.034Z,17.50
2019-01-30T07:52:43.591Z,19.30
2019-01-30T07:55:13.851Z,13.78
2019-01-30T07:57:43.003Z,14.63
2019-01-30T08:00:13.658Z,15.68
2019-01-30T08:02:52.594Z,15.60
2019-01-30T08:05:13.222Z,16.73
2019-01-30T08:07:42.139Z,14.83
2019-01-30T08:10:11.566Z,15.95
2019-01-30T08:12:40.038Z,14.68
2019-01-30T08:15:11.878Z,16.55
2019-01-30T08:17:40.898Z,14.30
2019-01-30T08:20:12.774Z,16.73
2019-01-30T08:22:41.462Z,16.73
2019-01-30T08:25:10.710Z,14.05
2019-01-30T08:27:41.973Z,14.47
2019-01-30T08:30:22.702Z,18.30
2019-01-30T08:32:47.098Z,20.57
2019-01-30T08:35:16.759Z,17.92
2019-01-30T08:37:45.954Z,17.67
2019-01-30T08:40:14.543Z,16.95
2019-01-30T08:42:42.550Z,14.83
2019-01-30T08:45:16.090Z,16.20
2019-01-30T08:47:43.338Z,17.95
2019-01-30T08:50:14.392Z,16.02
2019-01-30T08:52:42.031Z,18.00
2019-01-30T08:55:12.590Z,17.07
2019-01-30T08:57:40.007Z,15.43
2019-01-30T09:00:10.994Z,16.23
2019-01-30T09:02:38.024Z,17.32
2019-01-30T09:05:06.409Z,14.90
2019-01-30T09:07:43.834Z,16.85
2019-01-30T09:10:07.054Z,17.23
2019-01-30T09:12:34.951Z,15.50
2019-01-30T09:15:04.206Z,16.65
2019-01-30T09:17:35.899Z,17.60
2019-01-30T09:20:07.822Z,18.82
2019-01-30T09:22:36.062Z,17.42
2019-01-30T09:25:04.999Z,17.02
2019-01-30T09:27:37.475Z,20.35
2019-01-30T09:30:09.375Z,16.65
2019-01-30T09:32:37.331Z,17.25
2019-01-30T09:35:06.175Z,16.93
2019-01-30T09:37:34.117Z,17.45
2019-01-30T09:40:04.939Z,18.50
2019-01-30T09:42:33.130Z,17.70
2019-01-30T09:45:01.160Z,18.42
2019-01-30T09:47:29.289Z,21.10
2019-01-30T09:49:57.398Z,18.48
2019-01-30T09:52:28.188Z,17.15
2019-01-30T09:54:56.326Z,18.60
2019-01-30T09:57:24.265Z,21.25
2019-01-30T09:59:52.710Z,15.20
2019-01-30T10:02:20.630Z,17.10
2019-01-30T10:04:48.802Z,15.68
2019-01-30T10:07:19.190Z,17.55
2019-01-30T10:09:47.222Z,18.45
2019-01-30T10:12:15.167Z,16.75
2019-01-30T10:14:43.462Z,18.87
2019-01-30T10:17:11.396Z,16.02
2019-01-30T10:19:41.887Z,15.88
2019-01-30T10:22:10.202Z,19.35
2019-01-30T10:24:38.239Z,15.85
2019-01-30T10:27:06.467Z,15.83
2019-01-30T10:29:34.606Z,16.70
2019-01-30T10:32:05.663Z,16.90
2019-01-30T10:34:33.839Z,18.73
2019-01-30T10:37:03.779Z,17.42
2019-01-30T10:39:31.940Z,19.45
2019-01-30T10:42:00.050Z,18.70
2019-01-30T10:44:32.458Z,17.48
2019-01-30T10:47:00.770Z,16.80
2019-01-30T10:49:28.714Z,18.92
2019-01-30T10:51:57.518Z,24.92
2019-01-30T10:54:24.839Z,16.80
2019-01-30T10:56:53.060Z,15.53
2019-01-30T10:59:21.958Z,17.42
2019-01-30T11:01:49.985Z,20.45
2019-01-30T11:04:18.003Z,18.32
2019-01-30T11:06:46.612Z,19.20
2019-01-30T11:09:13.775Z,17.23
2019-01-30T11:11:41.689Z,18.12
2019-01-30T11:14:15.446Z,18.92
2019-01-30T11:16:42.582Z,21.00
2019-01-30T11:19:09.750Z,18.42
2019-01-30T11:21:36.885Z,19.48
2019-01-30T11:24:05.103Z,21.50
2019-01-30T11:26:36.555Z,17.75
2019-01-30T11:29:05.025Z,19.90
2019-01-30T11:31:33.294Z,18.75
2019-01-30T11:34:07.310Z,16.20
2019-01-30T11:36:31.438Z,18.92
2019-01-30T11:39:04.735Z,19.77
2019-01-30T11:41:32.682Z,15.00
2019-01-30T11:44:00.941Z,17.60
2019-01-30T11:46:28.976Z,18.60
2019-01-30T11:48:56.993Z,16.82
2019-01-30T11:51:29.887Z,18.62
2019-01-30T11:54:07.002Z,19.25
2019-01-30T11:56:34.127Z,14.60
2019-01-30T11:59:01.274Z,24.75
2019-01-30T12:01:32.170Z,22.37
2019-01-30T12:04:02.334Z,17.85
2019-01-30T12:06:29.262Z,19.82
2019-01-30T12:08:57.112Z,18.90
2019-01-30T12:11:24.297Z,14.50
2019-01-30T12:13:56.574Z,16.45
2019-01-30T12:16:23.730Z,20.95
2019-01-30T12:18:53.742Z,17.25
2019-01-30T12:21:22.114Z,20.82
2019-01-30T12:23:50.597Z,19.60
2019-01-30T12:26:25.393Z,18.15
2019-01-30T12:28:52.917Z,18.10
2019-01-30T12:31:20.138Z,17.25
2019-01-30T12:33:48.342Z,19.40
2019-01-30T12:36:16.589Z,18.15
2019-01-30T12:38:47.529Z,18.30
2019-01-30T12:41:16.795Z,21.40
2019-01-30T12:43:45.631Z,21.68
2019-01-30T12:46:14.169Z,23.47
2019-01-30T12:48:42.116Z,21.00
2019-01-30T12:51:11.807Z,19.70
2019-01-30T12:53:40.690Z,19.25
2019-01-30T12:56:09.118Z,18.55
2019-01-30T12:58:37.599Z,20.68
2019-01-30T13:01:06.493Z,17.87
2019-01-30T13:03:34.829Z,20.30
2019-01-30T13:06:07.866Z,19.85
2019-01-30T13:08:35.705Z,24.45
2019-01-30T13:11:04.262Z,18.92
2019-01-30T13:13:36.515Z,21.35
2019-01-30T13:16:03.774Z,20.40
2019-01-30T13:18:33.634Z,20.72
2019-01-30T13:21:01.771Z,20.90
2019-01-30T13:23:29.905Z,20.40
2019-01-30T13:25:58.048Z,25.70
2019-01-30T13:28:26.233Z,22.58
2019-01-30T13:30:55.678Z,22.17
2019-01-30T13:33:25.753Z,20.68
2019-01-30T13:35:55.547Z,21.68
2019-01-30T13:38:22.699Z,23.60
2019-01-30T13:40:49.714Z,20.20
2019-01-30T13:43:17.754Z,22.27
2019-01-30T13:45:49.392Z,22.40
2019-01-30T13:48:18.532Z,26.10
2019-01-30T13:50:46.962Z,25.15
2019-01-30T13:53:15.073Z,22.75
2019-01-30T13:55:54.113Z,23.70
2019-01-30T13:58:21.168Z,23.18
2019-01-30T14:00:48.193Z,25.75
2019-01-30T14:03:15.414Z,19.20
2019-01-30T14:05:42.522Z,20.75
2019-01-30T14:08:15.177Z,25.62
2019-01-30T14:10:43.559Z,21.62
2019-01-30T14:13:11.675Z,20.95
2019-01-30T14:15:40.092Z,20.27
2019-01-30T14:18:08.383Z,23.27
2019-01-30T14:20:39.030Z,24.47
2019-01-30T14:23:07.087Z,22.02
2019-01-30T14:25:35.521Z,21.30
2019-01-30T14:28:03.925Z,24.15
2019-01-30T14:30:33.532Z,20.82
2019-01-30T14:33:06.327Z,20.30
2019-01-30T14:35:36.978Z,22.65
2019-01-30T14:38:05.194Z,25.12
2019-01-30T14:40:33.241Z,21.75
2019-01-30T14:43:01.646Z,23.85
2019-01-30T14:45:30.805Z,26.97
2019-01-30T14:47:59.145Z,25.12
2019-01-30T14:50:27.682Z,23.70
2019-01-30T14:52:56.544Z,26.05
2019-01-30T14:55:25.466Z,24.10
2019-01-30T14:57:55.965Z,23.67
2019-01-30T15:00:25.798Z,20.32
2019-01-30T15:02:53.867Z,21.48
2019-01-30T15:05:22.909Z,18.62
2019-01-30T15:08:00.522Z,23.32
2019-01-30T15:10:28.526Z,19.85
2019-01-30T15:12:56.540Z,21.10
2019-01-30T15:15:27.045Z,21.10
2019-01-30T15:18:00.967Z,21.40
2019-01-30T15:20:33.130Z,19.15
2019-01-30T15:23:00.974Z,20.43
2019-01-30T15:25:28.232Z,22.93
2019-01-30T15:27:56.478Z,23.45
2019-01-30T15:30:29.070Z,24.95
2019-01-30T15:32:59.010Z,26.68
2019-01-30T15:35:33.813Z,26.02
2019-01-30T15:37:58.476Z,27.55
2019-01-30T15:40:27.093Z,22.62
2019-01-30T15:42:58.863Z,29.32
2019-01-30T15:45:27.410Z,30.65
2019-01-30T15:47:58.150Z,27.70
2019-01-30T15:50:28.379Z,27.95
2019-01-30T15:53:02.817Z,27.27
2019-01-30T15:55:30.588Z,30.68
2019-01-30T15:58:05.206Z,30.77
2019-01-30T16:00:35.895Z,28.00
2019-01-30T16:03:03.478Z,31.62
2019-01-30T16:05:32.310Z,28.67
2019-01-30T16:08:00.676Z,31.75
2019-01-30T16:10:29.045Z,38.15
2019-01-30T16:12:57.107Z,34.33
2019-01-30T16:15:28.603Z,32.85
2019-01-30T16:17:57.467Z,36.00
2019-01-30T16:20:26.141Z,33.35
2019-01-30T16:22:56.888Z,30.15
2019-01-30T16:25:25.421Z,34.63
2019-01-30T16:27:53.991Z,30.95
2019-01-30T16:30:22.663Z,34.67
2019-01-30T16:32:51.074Z,29.82
2019-01-30T16:35:22.142Z,33.02
2019-01-30T16:37:50.744Z,27.67
2019-01-30T16:40:19.633Z,34.05
2019-01-30T16:42:47.743Z,29.02
2019-01-30T16:45:17.927Z,29.00
2019-01-30T16:47:46.378Z,33.73
2019-01-30T16:50:15.613Z,31.37
2019-01-30T16:52:44.088Z,28.52
2019-01-30T16:55:12.208Z,36.85
2019-01-30T16:57:41.150Z,42.13
2019-01-30T17:00:13.545Z,33.28
2019-01-30T17:02:41.795Z,38.75
2019-01-30T17:05:11.707Z,40.67
2019-01-30T17:07:39.666Z,39.20
2019-01-30T17:10:08.795Z,34.78
2019-01-30T17:12:38.673Z,37.85
2019-01-30T17:15:10.303Z,34.88
2019-01-30T17:17:38.868Z,39.45
2019-01-30T17:20:11.250Z,34.33
2019-01-30T17:22:39.270Z,42.45
2019-01-30T17:25:07.894Z,37.30
2019-01-30T17:27:36.343Z,38.45
2019-01-30T17:30:08.149Z,34.27
2019-01-30T17:32:36.591Z,36.90
2019-01-30T17:35:05.022Z,35.65
2019-01-30T17:37:33.468Z,37.90
2019-01-30T17:40:02.628Z,35.68
2019-01-30T17:42:32.652Z,37.13
2019-01-30T17:45:01.410Z,35.60
2019-01-30T17:47:28.792Z,34.05
2019-01-30T17:49:58.840Z,32.08
2019-01-30T17:52:27.394Z,33.63
2019-01-30T17:54:55.890Z,32.63
2019-01-30T17:57:35.194Z,38.20
2019-01-30T18:00:06.314Z,32.17
2019-01-30T18:02:33.342Z,34.55
2019-01-30T18:05:00.433Z,34.88
2019-01-30T18:07:27.694Z,35.63
2019-01-30T18:09:54.714Z,39.88
2019-01-30T18:12:22.007Z,40.12
2019-01-30T18:14:49.026Z,38.55
2019-01-30T18:17:16.537Z,35.23
2019-01-30T18:19:43.462Z,39.60
2019-01-30T18:22:11.081Z,40.88
2019-01-30T18:24:38.580Z,43.05
2019-01-30T18:27:05.869Z,47.25
2019-01-30T18:29:34.057Z,42.03
2019-01-30T18:32:03.101Z,42.93
2019-01-30T18:34:30.243Z,48.95
2019-01-30T18:36:59.129Z,43.40
2019-01-30T18:39:28.034Z,49.53
2019-01-30T18:41:56.318Z,55.73
2019-01-30T18:44:23.940Z,50.15
2019-01-30T18:46:52.858Z,50.15
2019-01-30T18:49:20.114Z,50.23
2019-01-30T18:51:48.959Z,55.28
2019-01-30T18:54:16.467Z,50.08
2019-01-30T18:56:44.650Z,55.45
2019-01-30T18:59:13.014Z,56.55
2019-01-30T19:01:41.400Z,55.50
2019-01-30T19:04:09.491Z,64.03
2019-01-30T19:06:38.773Z,53.50
2019-01-30T19:09:09.807Z,54.30
2019-01-30T19:11:38.802Z,58.23
2019-01-30T19:14:07.073Z,54.13
2019-01-30T19:16:34.825Z,53.92
2019-01-30T19:19:03.368Z,49.23
2019-01-30T19:21:31.771Z,53.63
2019-01-30T19:24:00.034Z,53.73
2019-01-30T19:26:27.638Z,53.50
2019-01-30T19:28:56.015Z,53.90
2019-01-30T19:31:24.918Z,56.02
2019-01-30T19:33:52.185Z,58.30
2019-01-30T19:36:20.777Z,50.17
2019-01-30T19:38:48.391Z,55.55
2019-01-30T19:41:16.418Z,54.70
2019-01-30T19:43:44.431Z,53.87
2019-01-30T19:46:12.413Z,49.65
2019-01-30T19:48:40.532Z,51.40
2019-01-30T19:51:13.067Z,55.10
2019-01-30T19:53:40.176Z,55.73
2019-01-30T19:56:07.381Z,53.58
2019-01-30T19:58:34.313Z,55.52
2019-01-30T20:01:01.263Z,57.23
2019-01-30T20:03:31.496Z,54.00
2019-01-30T20:05:59.713Z,55.48
2019-01-30T20:08:27.846Z,58.92
2019-01-30T20:10:55.850Z,57.10
2019-01-30T20:13:23.870Z,58.45
2019-01-30T20:15:52.145Z,50.83
2019-01-30T20:18:20.258Z,66.77
2019-01-30T20:20:48.402Z,57.73
2019-01-30T20:23:17.313Z,61.60
2019-01-30T20:25:45.582Z,54.98
2019-01-30T20:28:13.777Z,60.55
2019-01-30T20:30:42.022Z,47.78
2019-01-30T20:33:10.196Z,56.50
2019-01-30T20:35:38.207Z,48.60
2019-01-30T20:38:06.370Z,54.93
2019-01-30T20:40:34.382Z,53.75
2019-01-30T20:43:03.002Z,49.77
2019-01-30T20:45:33.886Z,55.10
2019-01-30T20:48:00.863Z,50.70
2019-01-30T20:50:29.531Z,49.10
2019-01-30T20:52:57.972Z,49.65
2019-01-30T20:55:26.195Z,49.30
2019-01-30T20:57:54.466Z,55.35
2019-01-30T21:00:25.003Z,57.60
2019-01-30T21:02:53.202Z,50.75
2019-01-30T21:05:21.785Z,55.12
2019-01-30T21:07:50.193Z,54.55
2019-01-30T21:10:20.783Z,53.50
2019-01-30T21:12:48.939Z,51.42
2019-01-30T21:15:17.430Z,48.70
2019-01-30T21:17:45.619Z,50.90
2019-01-30T21:20:14.502Z,53.87
2019-01-30T21:22:42.498Z,49.90
2019-01-30T21:25:13.309Z,53.10
2019-01-30T21:27:41.941Z,52.38
2019-01-30T21:30:12.518Z,49.65
2019-01-30T21:32:43.594Z,49.40
2019-01-30T21:35:11.772Z,47.70
2019-01-30T21:37:48.586Z,47.75
2019-01-30T21:40:11.571Z,50.73
2019-01-30T21:42:42.382Z,51.60
2019-01-30T21:45:10.790Z,49.53
2019-01-30T21:47:37.781Z,49.93
2019-01-30T21:50:06.307Z,50.67
2019-01-30T21:52:35.907Z,49.77
2019-01-30T21:55:04.958Z,46.28
2019-01-30T21:57:31.958Z,51.25
2019-01-30T21:59:59.342Z,44.08
2019-01-30T22:02:26.592Z,47.55
2019-01-30T22:04:53.767Z,39.75
2019-01-30T22:07:22.267Z,45.58
2019-01-30T22:09:50.384Z,45.98
2019-01-30T22:12:20.130Z,42.88
2019-01-30T22:14:47.359Z,44.90
2019-01-30T22:17:15.998Z,38.20
2019-01-30T22:19:44.148Z,39.60
2019-01-30T22:22:12.613Z,37.98
2019-01-30T22:24:40.009Z,37.98
2019-01-30T22:27:08.224Z,36.55
2019-01-30T22:29:36.591Z,33.50
2019-01-30T22:32:05.186Z,32.05
2019-01-30T22:34:32.165Z,30.88
2019-01-30T22:37:00.424Z,31.42
2019-01-30T22:39:28.453Z,29.72
2019-01-30T22:41:56.703Z,28.07
2019-01-30T22:44:24.778Z,29.77
2019-01-30T22:46:52.949Z,26.95
2019-01-30T22:49:21.359Z,28.98
2019-01-30T22:51:49.386Z,27.30
2019-01-30T22:54:16.344Z,30.15
2019-01-30T22:56:44.384Z,28.27
2019-01-30T22:59:12.414Z,31.35
2019-01-30T23:01:49.833Z,27.55
2019-01-30T23:04:41.717Z,27.40
2019-01-30T23:07:23.946Z,28.65
2019-01-30T23:10:16.639Z,32.45
2019-01-30T23:13:12.311Z,30.20
2019-01-30T23:15:55.903Z,32.48
2019-01-30T23:18:53.069Z,32.17
2019-01-30T23:21:26.302Z,32.63
2019-01-30T23:24:51.186Z,35.52
2019-01-30T23:27:29.374Z,34.67
2019-01-30T23:30:42.682Z,48.30
2019-01-30T23:33:56.025Z,38.10
2019-01-30T23:36:53.162Z,34.25
2019-01-30T23:40:09.513Z,34.53
2019-01-30T23:43:10.002Z,38.42
2019-01-30T23:46:16.741Z,32.48
2019-01-30T23:49:23.839Z,35.98
2019-01-30T23:52:49.335Z,34.85
2019-01-30T23:55:41.851Z,38.38
2019-01-30T23:58:41.816Z,36.45
